EGSC - Cambridge
Distance from station: E 5mi, 14km
Updated: 12/11/2017 9:20am
NOT Current
Few Clouds
Few Clouds
 Wind from NNW
Wind: NNW 15 mph , 24 km/h
Temperature: 34°F , 1°C
Wind Chill: 24°F , -4°C
Dew Point: 32°F , 0°C
Humidity: 93%
Barometer: 29.21 inHg , 989 hPa
Clouds: Few Clouds
Visibility: 6 miles , 10 km
Cloud details: Few Clouds 3800 ft
2017/12/11 17:20 EGSC 111720Z 34013KT 9999 FEW038 01/M00 Q0989